createdAt,value
2023-05-14T00:00:17.319Z,9.6691
2023-05-14T00:01:17.321Z,9.6672
2023-05-14T00:02:17.908Z,9.6368
2023-05-14T00:03:18.917Z,9.6772
2023-05-14T00:04:19.840Z,9.6812
2023-05-14T00:05:20.084Z,9.6265
2023-05-14T00:06:20.242Z,9.5824
2023-05-14T00:07:20.556Z,9.5670
2023-05-14T00:08:21.526Z,9.5083
2023-05-14T00:09:22.686Z,9.5283
2023-05-14T00:10:23.545Z,9.5564
2023-05-14T00:11:24.233Z,9.5363
2023-05-14T00:12:24.372Z,9.4625
2023-05-14T00:13:24.660Z,9.3901
2023-05-14T00:14:24.793Z,9.3919
2023-05-14T00:15:25.832Z,9.3969
2023-05-14T00:16:27.152Z,9.4135
2023-05-14T00:17:28.023Z,9.3923
2023-05-14T00:18:28.823Z,9.3488
2023-05-14T00:20:49.517Z,9.2553
2023-05-14T00:28:56.742Z,9.1353
2023-05-14T00:30:56.408Z,9.0593
2023-05-14T00:31:56.357Z,9.0703
2023-05-14T00:32:57.275Z,9.1304
2023-05-14T00:33:58.144Z,9.0668
2023-05-14T00:34:59.520Z,9.1204
2023-05-14T00:36:00.418Z,9.0448
2023-05-14T00:37:01.105Z,8.9945
2023-05-14T00:38:01.593Z,9.0654
2023-05-14T00:39:02.495Z,9.1557
2023-05-14T00:40:03.138Z,9.2081
2023-05-14T00:41:03.512Z,9.2500
2023-05-14T00:45:05.218Z,9.0583
2023-05-14T00:46:05.498Z,8.9651
2023-05-14T00:47:07.273Z,9.0017
2023-05-14T00:48:07.938Z,9.0459
2023-05-14T00:49:08.270Z,9.0425
2023-05-14T00:50:09.275Z,9.0069
2023-05-14T00:51:09.862Z,9.0187
2023-05-14T00:52:09.992Z,8.9471
2023-05-14T00:53:10.149Z,8.9209
2023-05-14T00:54:11.656Z,8.9199
2023-05-14T01:00:16.664Z,9.1292
2023-05-14T01:05:18.474Z,9.1311
2023-05-14T01:14:22.885Z,9.1522
2023-05-14T01:15:23.354Z,9.1104
2023-05-14T01:16:23.838Z,9.1092
2023-05-14T01:17:24.969Z,9.1564
2023-05-14T01:18:24.991Z,9.1166
2023-05-14T01:19:26.197Z,9.1683
2023-05-14T01:20:27.644Z,9.2182
2023-05-14T01:21:27.913Z,9.2455
2023-05-14T01:22:29.119Z,9.2121
2023-05-14T01:35:33.132Z,9.1586
2023-05-14T01:37:33.275Z,9.1562
2023-05-14T01:38:34.218Z,9.1530
2023-05-14T01:40:35.200Z,9.1458
2023-05-14T01:41:36.115Z,9.1259
2023-05-14T01:42:37.250Z,9.1170
2023-05-14T01:43:37.475Z,9.1091
2023-05-14T01:44:37.841Z,9.0893
2023-05-14T01:51:41.113Z,9.0424
2023-05-14T01:59:46.509Z,9.0643
2023-05-14T02:00:46.550Z,9.0502
2023-05-14T02:02:49.765Z,8.9576
2023-05-14T02:03:50.147Z,8.9531
2023-05-14T02:05:53.668Z,8.9205
2023-05-14T02:07:54.512Z,8.9280
2023-05-14T02:08:54.857Z,8.9514
2023-05-14T02:09:56.006Z,8.9521
2023-05-14T02:10:57.047Z,8.9449
2023-05-14T02:11:57.378Z,8.9702
2023-05-14T02:12:57.452Z,8.9891
2023-05-14T02:13:57.829Z,8.9927
2023-05-14T02:14:59.042Z,8.9881
2023-05-14T02:20:02.134Z,8.8825
2023-05-14T02:21:02.938Z,8.8722
2023-05-14T02:22:03.789Z,8.8997
2023-05-14T02:23:03.908Z,8.8684
2023-05-14T02:24:05.174Z,8.8401
2023-05-14T02:25:05.860Z,8.8249
2023-05-14T02:26:06.912Z,8.8401
2023-05-14T02:35:15.101Z,8.8267
2023-05-14T02:36:14.541Z,8.8441
2023-05-14T02:37:14.888Z,8.8039
2023-05-14T02:38:15.533Z,8.7469
2023-05-14T02:39:15.890Z,8.6986
2023-05-14T02:40:16.811Z,8.7630
2023-05-14T02:41:18.317Z,8.7463
2023-05-14T02:42:19.274Z,8.6725
2023-05-14T02:44:20.862Z,8.6231
2023-05-14T02:45:21.324Z,8.6267
2023-05-14T02:46:21.614Z,8.6433
2023-05-14T02:47:22.696Z,8.6051
2023-05-14T02:48:23.393Z,8.5320
2023-05-14T02:49:24.580Z,8.5215
2023-05-14T02:50:25.273Z,8.5193
2023-05-14T02:51:25.468Z,8.4966
2023-05-14T02:52:26.180Z,8.5065
2023-05-14T02:53:26.880Z,8.5033
2023-05-14T02:54:27.433Z,8.5527
2023-05-14T02:55:28.465Z,8.5501
2023-05-14T02:56:29.219Z,8.5324
2023-05-14T02:57:29.320Z,8.5193
2023-05-14T02:58:30.227Z,8.5533
2023-05-14T02:59:30.507Z,8.5567
2023-05-14T03:00:30.539Z,8.5624
2023-05-14T03:01:31.345Z,8.5761
2023-05-14T03:02:32.162Z,8.5864
2023-05-14T03:11:42.262Z,8.5908
2023-05-14T03:13:41.998Z,8.5908
2023-05-14T03:14:43.517Z,8.6201
2023-05-14T03:15:44.774Z,8.6093
2023-05-14T03:16:45.620Z,8.6121
2023-05-14T03:17:46.821Z,8.5982
2023-05-14T03:21:48.335Z,8.5389
2023-05-14T03:22:49.175Z,8.4582
2023-05-14T03:23:49.930Z,8.4791
2023-05-14T03:24:50.183Z,8.4526
2023-05-14T03:25:50.538Z,8.4372
2023-05-14T03:26:51.920Z,8.3992
2023-05-14T03:31:55.725Z,8.1692
2023-05-14T03:42:02.944Z,7.9267
2023-05-14T03:43:03.437Z,8.0114
2023-05-14T03:44:03.657Z,8.0814
2023-05-14T03:45:04.532Z,8.1064
2023-05-14T03:46:05.442Z,8.0631
2023-05-14T03:48:06.331Z,7.9407
2023-05-14T03:49:06.941Z,7.9519
2023-05-14T03:51:06.722Z,7.9803
2023-05-14T03:52:10.597Z,7.9905
2023-05-14T03:54:09.318Z,7.9902
2023-05-14T04:02:13.972Z,8.2046
2023-05-14T04:03:14.707Z,8.2316
2023-05-14T04:04:15.790Z,8.2405
2023-05-14T04:05:17.190Z,8.2356
2023-05-14T04:07:18.093Z,8.2656
2023-05-14T04:08:19.112Z,8.3101
2023-05-14T04:10:20.317Z,8.3417
2023-05-14T04:11:20.547Z,8.3808
2023-05-14T04:12:20.559Z,8.4193
2023-05-14T04:13:22.097Z,8.4477
2023-05-14T04:14:22.815Z,8.5050
2023-05-14T04:18:24.553Z,8.5587
2023-05-14T04:19:24.650Z,8.6154
2023-05-14T04:20:24.886Z,8.6380
2023-05-14T04:21:26.125Z,8.7163
2023-05-14T04:22:26.361Z,8.7434
2023-05-14T04:23:26.604Z,8.7920
2023-05-14T04:24:27.786Z,8.7907
2023-05-14T04:30:32.613Z,8.8823
2023-05-14T04:31:34.567Z,8.9486
2023-05-14T04:35:35.708Z,9.0272
2023-05-14T04:36:36.442Z,8.9981
2023-05-14T04:37:37.129Z,8.9924
2023-05-14T04:38:37.312Z,9.0476
2023-05-14T04:43:40.252Z,9.0588
2023-05-14T04:49:44.212Z,9.2427
2023-05-14T04:50:45.274Z,9.2939
2023-05-14T04:51:46.112Z,9.3301
2023-05-14T04:52:46.802Z,9.3872
2023-05-14T04:53:47.762Z,9.4101
2023-05-14T04:54:47.508Z,9.4571
2023-05-14T04:55:48.448Z,9.5415
2023-05-14T05:01:53.309Z,9.7104
2023-05-14T05:13:02.079Z,9.7888
2023-05-14T05:14:02.749Z,9.9144
2023-05-14T05:16:02.808Z,9.8659
2023-05-14T05:17:03.271Z,9.8422
2023-05-14T05:18:04.807Z,9.7477
2023-05-14T05:19:05.908Z,9.7709
2023-05-14T05:20:06.790Z,9.8857
2023-05-14T05:21:07.254Z,10.0009
2023-05-14T05:28:10.863Z,10.1882
2023-05-14T05:29:11.186Z,10.1140
2023-05-14T05:30:11.783Z,10.2299
2023-05-14T05:31:13.169Z,10.1315
2023-05-14T05:33:13.229Z,10.1264
2023-05-14T05:35:13.941Z,10.3464
2023-05-14T05:36:14.593Z,10.3762
2023-05-14T05:37:15.910Z,10.7507
2023-05-14T05:51:27.929Z,11.0276
2023-05-14T05:52:28.720Z,10.9137
2023-05-14T05:53:29.423Z,10.8817
2023-05-14T05:54:30.054Z,11.0641
2023-05-14T05:55:31.285Z,11.2534
2023-05-14T05:56:32.560Z,11.2489
2023-05-14T05:57:32.623Z,11.3794
2023-05-14T05:58:33.280Z,11.3257
2023-05-14T05:59:34.007Z,11.3467
2023-05-14T06:09:38.585Z,10.6100
2023-05-14T06:10:39.137Z,10.6818
2023-05-14T06:11:39.382Z,10.5583
2023-05-14T06:12:39.965Z,10.6678
2023-05-14T06:13:40.738Z,10.6246
2023-05-14T06:14:41.188Z,10.4682
2023-05-14T06:15:43.053Z,10.4990
2023-05-14T06:16:44.407Z,10.5802
2023-05-14T06:17:44.854Z,10.6057
2023-05-14T06:18:45.803Z,10.6056
2023-05-14T06:19:46.352Z,10.5833
2023-05-14T06:20:46.527Z,10.4053
2023-05-14T06:22:49.843Z,10.3771
2023-05-14T06:23:50.302Z,10.2656
2023-05-14T06:24:50.358Z,10.3052
2023-05-14T06:26:54.662Z,10.3875
2023-05-14T06:27:55.006Z,10.4102
2023-05-14T06:28:55.091Z,10.3444
2023-05-14T06:30:57.474Z,10.4213
2023-05-14T06:31:57.812Z,10.2753
2023-05-14T06:34:01.022Z,10.6080
2023-05-14T06:35:02.108Z,10.7664
2023-05-14T06:37:02.866Z,10.6910
2023-05-14T06:38:02.934Z,10.9408
2023-05-14T06:39:03.690Z,10.9882
2023-05-14T06:40:05.186Z,10.8934
2023-05-14T06:41:05.350Z,10.6792
2023-05-14T06:43:07.611Z,10.6651
2023-05-14T06:48:17.027Z,10.6338
2023-05-14T06:49:17.961Z,10.8086
2023-05-14T06:50:18.883Z,10.8442
2023-05-14T06:54:38.691Z,10.8859
2023-05-14T06:55:39.799Z,11.0368
2023-05-14T06:56:40.053Z,10.9161
2023-05-14T06:57:41.024Z,11.0066
2023-05-14T06:58:42.843Z,10.9628
2023-05-14T07:00:42.978Z,11.2248
2023-05-14T07:01:44.088Z,11.3253
2023-05-14T07:02:45.032Z,11.3185
2023-05-14T07:09:26.055Z,10.9356
2023-05-14T07:10:28.654Z,10.8643
2023-05-14T07:18:08.915Z,10.9385
2023-05-14T07:19:09.746Z,10.8673
2023-05-14T07:20:11.216Z,11.0131
2023-05-14T07:21:11.335Z,10.7266
2023-05-14T07:22:12.969Z,10.9709
2023-05-14T07:23:13.756Z,10.8668
2023-05-14T07:25:14.655Z,11.1131
2023-05-14T07:26:14.711Z,11.1187
2023-05-14T07:27:15.726Z,10.9540
2023-05-14T07:28:17.188Z,11.0720
2023-05-14T07:29:17.237Z,11.2130
2023-05-14T07:30:17.693Z,11.5505
2023-05-14T07:31:19.364Z,11.8166
2023-05-14T07:32:20.246Z,11.6046
2023-05-14T07:36:21.477Z,12.9933
2023-05-14T07:38:22.457Z,12.2056
2023-05-14T07:39:22.758Z,12.3727
2023-05-14T07:40:23.081Z,12.1207
2023-05-14T07:46:25.179Z,13.0448
2023-05-14T07:47:26.518Z,13.6637
2023-05-14T07:48:27.015Z,13.3967
2023-05-14T07:49:27.935Z,13.7370
2023-05-14T07:50:29.142Z,14.0949
2023-05-14T07:51:30.206Z,13.9374
2023-05-14T07:52:31.957Z,14.4282
2023-05-14T07:53:32.585Z,14.7123
2023-05-14T07:54:33.388Z,15.9394
2023-05-14T07:55:34.145Z,15.1619
2023-05-14T07:56:46.949Z,15.6707
2023-05-14T08:06:54.103Z,14.5706
2023-05-14T08:10:56.994Z,14.2011
2023-05-14T08:13:57.140Z,14.4798
2023-05-14T08:14:57.616Z,14.0650
2023-05-14T08:15:57.624Z,14.7342
2023-05-14T08:16:58.854Z,14.7363
2023-05-14T08:17:59.454Z,13.7384
2023-05-14T08:19:00.497Z,13.1517
2023-05-14T08:20:01.839Z,13.2796
2023-05-14T08:21:05.408Z,13.5496
2023-05-14T08:22:06.196Z,14.6763
2023-05-14T08:23:07.412Z,14.1270
2023-05-14T08:25:10.066Z,15.3217
2023-05-14T08:26:10.436Z,14.2618
2023-05-14T08:29:46.208Z,12.7705
2023-05-14T08:30:46.630Z,12.8661
2023-05-14T08:31:46.858Z,13.0406
2023-05-14T08:32:47.489Z,12.8636
2023-05-14T08:33:48.502Z,13.0402
2023-05-14T08:34:50.003Z,13.3119
2023-05-14T08:36:55.195Z,13.5715
2023-05-14T08:37:55.678Z,13.3132
2023-05-14T08:38:56.018Z,13.4385
2023-05-14T08:39:56.454Z,13.3659
2023-05-14T08:40:56.939Z,13.2997
2023-05-14T08:41:57.801Z,14.0117
2023-05-14T08:42:58.951Z,13.8818
2023-05-14T08:43:59.736Z,13.4292
2023-05-14T08:45:00.781Z,14.0679
2023-05-14T08:46:01.897Z,14.0147
2023-05-14T08:47:02.246Z,13.9655
2023-05-14T08:48:04.863Z,13.8430
2023-05-14T08:50:03.718Z,13.3362
2023-05-14T08:51:04.191Z,13.0930
2023-05-14T08:52:04.948Z,13.8297
2023-05-14T08:53:05.528Z,13.9247
2023-05-14T08:54:05.723Z,14.4950
2023-05-14T08:55:06.651Z,14.7838
2023-05-14T08:56:06.526Z,14.7601
2023-05-14T08:57:07.012Z,14.8897
2023-05-14T09:05:14.789Z,16.0592
2023-05-14T09:06:15.580Z,17.0140
2023-05-14T09:07:16.249Z,15.1785
2023-05-14T09:09:04.183Z,15.3208
2023-05-14T09:10:04.608Z,14.5608
2023-05-14T09:11:06.628Z,15.2827
2023-05-14T09:12:07.477Z,15.4077
2023-05-14T09:13:08.683Z,15.0649
2023-05-14T09:14:09.880Z,16.5560
2023-05-14T09:15:10.941Z,14.9812
2023-05-14T09:16:12.466Z,15.7791
2023-05-14T09:17:12.255Z,14.8198
2023-05-14T09:18:13.495Z,15.5811
2023-05-14T09:19:14.227Z,15.3856
2023-05-14T09:20:15.167Z,14.4629
2023-05-14T09:24:04.407Z,13.6466
2023-05-14T09:30:09.629Z,13.8279
2023-05-14T09:31:09.740Z,13.4880
2023-05-14T09:33:09.799Z,13.1527
2023-05-14T09:35:10.686Z,13.1584
2023-05-14T09:36:11.969Z,13.5334
2023-05-14T09:37:12.892Z,13.9256
2023-05-14T09:43:22.971Z,14.7308
2023-05-14T09:46:26.617Z,14.6528
2023-05-14T09:47:26.917Z,14.5832
2023-05-14T09:48:26.985Z,14.3631
2023-05-14T09:49:27.810Z,14.7976
2023-05-14T09:51:29.033Z,15.4068
2023-05-14T09:52:29.700Z,14.5376
2023-05-14T09:53:30.756Z,14.2322
2023-05-14T09:57:58.389Z,13.7535
2023-05-14T09:58:58.897Z,13.7135
2023-05-14T10:00:00.001Z,13.4294
2023-05-14T10:01:01.078Z,13.5772
2023-05-14T10:02:02.260Z,13.2486
2023-05-14T10:03:02.262Z,13.3934
2023-05-14T10:04:04.057Z,13.7883
2023-05-14T10:05:05.262Z,13.9856
2023-05-14T10:06:05.399Z,13.8039
2023-05-14T10:07:06.413Z,13.5243
2023-05-14T10:08:06.792Z,13.4173
2023-05-14T10:09:07.405Z,13.6971
2023-05-14T10:10:08.514Z,13.7790
2023-05-14T10:12:09.651Z,13.8188
2023-05-14T10:13:10.601Z,14.0219
2023-05-14T10:16:41.015Z,13.9739
2023-05-14T10:17:41.149Z,14.1921
2023-05-14T10:18:42.303Z,14.1595
2023-05-14T10:19:43.166Z,14.0751
2023-05-14T10:20:44.306Z,14.0821
2023-05-14T10:21:45.144Z,13.8691
2023-05-14T10:22:45.408Z,14.6785
2023-05-14T10:29:25.077Z,14.8579
2023-05-14T10:30:26.446Z,14.2964
2023-05-14T10:31:26.430Z,13.9673
2023-05-14T10:32:27.166Z,13.6827
2023-05-14T10:33:27.679Z,13.9132
2023-05-14T10:34:29.008Z,13.9067
2023-05-14T10:35:30.244Z,13.6227
2023-05-14T10:36:31.102Z,13.4242
2023-05-14T10:37:31.752Z,13.7893
2023-05-14T10:42:20.660Z,14.0034
2023-05-14T10:51:07.710Z,14.2018
2023-05-14T10:52:07.749Z,14.6603
2023-05-14T10:53:08.717Z,14.6977
2023-05-14T10:54:09.123Z,15.0101
2023-05-14T10:55:10.404Z,15.5115
2023-05-14T10:56:10.629Z,15.1896
2023-05-14T10:57:11.346Z,14.9026
2023-05-14T10:58:11.531Z,14.7087
2023-05-14T10:59:12.615Z,14.6918
2023-05-14T11:00:13.273Z,14.5437
2023-05-14T11:01:13.329Z,14.7880
2023-05-14T11:02:15.901Z,14.9096
2023-05-14T11:06:40.378Z,15.9860
2023-05-14T11:10:41.680Z,18.3659
2023-05-14T11:11:42.771Z,18.2458
2023-05-14T11:12:43.440Z,18.7673
2023-05-14T11:13:44.244Z,18.4931
2023-05-14T11:18:48.534Z,17.3181
2023-05-14T11:19:50.461Z,16.1750
2023-05-14T11:31:31.454Z,14.0059
2023-05-14T11:32:31.719Z,14.2117
2023-05-14T11:33:33.341Z,14.2610
2023-05-14T11:34:33.322Z,14.3423
2023-05-14T11:35:34.284Z,13.8150
2023-05-14T11:36:36.277Z,13.8505
2023-05-14T11:38:36.441Z,14.2771
2023-05-14T11:41:39.737Z,14.9519
2023-05-14T11:43:45.782Z,14.8351
2023-05-14T11:48:53.674Z,14.9171
2023-05-14T11:49:53.924Z,14.6004
2023-05-14T11:51:29.098Z,14.6869
2023-05-14T11:53:33.493Z,14.7729
2023-05-14T11:55:31.290Z,14.7343
2023-05-14T11:58:32.230Z,15.3989
2023-05-14T11:59:33.201Z,15.1476
2023-05-14T12:01:34.298Z,15.4738
2023-05-14T12:02:35.234Z,15.7060
2023-05-14T12:03:35.821Z,15.9583
2023-05-14T12:04:35.482Z,16.5788
2023-05-14T12:05:36.148Z,15.8862
2023-05-14T12:06:38.167Z,15.3567
2023-05-14T12:07:37.924Z,14.8444
2023-05-14T12:12:40.472Z,13.0791
2023-05-14T12:13:41.867Z,12.5824
2023-05-14T12:14:42.592Z,12.5737
2023-05-14T12:21:54.434Z,12.1545
2023-05-14T12:22:55.209Z,12.0986
2023-05-14T12:23:55.923Z,12.0067
2023-05-14T12:24:57.145Z,11.9911
2023-05-14T12:25:57.719Z,12.0706
2023-05-14T12:26:58.028Z,12.1678
2023-05-14T12:27:58.380Z,12.1629
2023-05-14T12:28:59.170Z,12.0623
2023-05-14T12:30:09.203Z,12.0708
2023-05-14T12:31:00.486Z,12.0598
2023-05-14T12:33:02.928Z,12.0451
2023-05-14T12:34:04.087Z,11.9935
2023-05-14T12:36:20.746Z,11.9309
2023-05-14T12:37:07.549Z,11.9442
2023-05-14T12:38:07.682Z,11.9920
2023-05-14T12:39:08.894Z,12.0484
2023-05-14T12:40:10.353Z,12.1232
2023-05-14T12:41:11.491Z,12.1642
2023-05-14T12:42:12.172Z,11.9753
2023-05-14T12:43:12.506Z,12.1909
2023-05-14T12:45:13.720Z,12.1330
2023-05-14T12:49:17.886Z,12.4711
2023-05-14T12:51:19.740Z,12.4229
2023-05-14T12:53:24.058Z,12.1867
2023-05-14T12:56:25.357Z,12.4364
2023-05-14T12:58:26.328Z,12.5570
2023-05-14T12:59:26.587Z,12.4651
2023-05-14T13:00:26.922Z,12.7263
2023-05-14T13:01:27.608Z,12.5886
2023-05-14T13:02:28.637Z,12.4644
2023-05-14T13:03:29.138Z,12.5274
2023-05-14T13:04:30.438Z,12.3932
2023-05-14T13:05:31.541Z,12.2652
2023-05-14T13:06:32.491Z,12.3131
2023-05-14T13:07:32.957Z,12.5854
2023-05-14T13:08:33.400Z,12.9159
2023-05-14T13:09:33.980Z,12.7202
2023-05-14T13:10:34.598Z,12.7739
2023-05-14T13:17:42.272Z,13.8831
2023-05-14T13:19:42.870Z,13.1390
2023-05-14T13:20:43.482Z,12.9191
2023-05-14T13:21:44.105Z,13.2332
2023-05-14T13:22:44.853Z,13.7284
2023-05-14T13:24:46.768Z,13.4522
2023-05-14T13:27:47.396Z,13.4416
2023-05-14T13:29:48.274Z,14.0147
2023-05-14T13:36:53.498Z,14.7294
2023-05-14T13:37:54.516Z,14.6090
2023-05-14T13:38:55.648Z,14.5004
2023-05-14T13:39:55.921Z,14.6382
2023-05-14T13:40:56.322Z,14.0428
2023-05-14T13:41:56.628Z,14.5512
2023-05-14T13:42:57.701Z,14.3724
2023-05-14T13:43:58.388Z,14.3646
2023-05-14T13:45:58.741Z,14.6835
2023-05-14T13:46:58.944Z,14.8187
2023-05-14T13:47:59.526Z,14.9865
2023-05-14T13:48:59.625Z,14.8068
2023-05-14T13:50:00.865Z,14.8384
2023-05-14T13:51:02.019Z,14.9877
2023-05-14T13:52:02.447Z,14.8319
2023-05-14T13:53:03.301Z,14.8128
2023-05-14T13:54:04.301Z,14.9908
2023-05-14T13:55:04.976Z,14.9171
2023-05-14T13:56:05.321Z,15.0610
2023-05-14T13:57:06.434Z,15.2243
2023-05-14T13:58:06.861Z,15.5319
2023-05-14T13:59:06.689Z,15.2637
2023-05-14T14:00:07.354Z,15.4467
2023-05-14T14:01:07.701Z,15.3803
2023-05-14T14:03:08.775Z,16.7273
2023-05-14T14:04:09.603Z,16.4875
2023-05-14T14:05:10.144Z,16.6634
2023-05-14T14:06:10.472Z,16.8619
2023-05-14T14:07:11.301Z,17.2683
2023-05-14T14:08:23.473Z,17.3552
2023-05-14T14:09:19.039Z,16.6550
2023-05-14T14:12:20.772Z,15.4778
2023-05-14T14:13:21.778Z,15.6975
2023-05-14T14:14:20.932Z,15.3843
2023-05-14T14:15:20.937Z,15.8854
2023-05-14T14:16:22.129Z,15.7925
2023-05-14T14:17:23.109Z,16.8895
2023-05-14T14:25:28.709Z,15.9904
2023-05-14T14:26:28.718Z,16.7569
2023-05-14T14:27:29.449Z,16.2604
2023-05-14T14:28:29.759Z,15.9022
2023-05-14T14:29:29.853Z,15.6775
2023-05-14T14:30:30.958Z,15.4602
2023-05-14T14:31:31.860Z,15.6878
2023-05-14T14:32:33.058Z,15.2989
2023-05-14T14:33:33.480Z,15.3650
2023-05-14T14:34:34.567Z,14.9929
2023-05-14T14:35:35.329Z,15.0454
2023-05-14T14:36:35.785Z,14.8698
2023-05-14T14:37:37.340Z,14.8217
2023-05-14T14:44:39.665Z,14.5491
2023-05-14T14:45:40.014Z,14.2256
2023-05-14T14:46:41.032Z,14.1658
2023-05-14T14:47:42.171Z,14.1236
2023-05-14T14:48:42.501Z,14.0636
2023-05-14T14:49:43.372Z,13.8435
2023-05-14T14:50:43.824Z,13.7874
2023-05-14T14:51:45.472Z,13.6744
2023-05-14T14:52:46.742Z,13.0247
2023-05-14T14:53:47.152Z,12.5691
2023-05-14T14:54:47.356Z,12.2708
2023-05-14T14:55:48.613Z,12.0241
2023-05-14T14:56:49.833Z,11.7162
2023-05-14T14:57:51.061Z,11.5386
2023-05-14T14:58:51.011Z,11.3793
2023-05-14T14:59:51.059Z,11.3492
2023-05-14T15:00:52.163Z,11.3409
2023-05-14T15:01:52.667Z,11.2406
2023-05-14T15:02:52.930Z,11.1456
2023-05-14T15:03:54.010Z,11.0632
2023-05-14T15:04:54.753Z,10.9544
2023-05-14T15:05:55.498Z,10.8939
2023-05-14T15:06:55.902Z,11.0046
2023-05-14T15:07:56.360Z,11.0826
2023-05-14T15:08:57.465Z,11.0389
2023-05-14T15:09:58.014Z,11.0988
2023-05-14T15:10:58.208Z,11.1142
2023-05-14T15:11:58.437Z,11.1041
2023-05-14T15:12:58.534Z,11.1825
2023-05-14T15:13:59.154Z,11.2367
2023-05-14T15:14:59.615Z,11.2213
2023-05-14T15:16:00.701Z,11.1269
2023-05-14T15:17:01.240Z,11.0272
2023-05-14T15:18:02.418Z,11.0038
2023-05-14T15:19:02.691Z,10.9918
2023-05-14T15:20:03.305Z,11.0423
2023-05-14T15:21:04.445Z,11.0898
2023-05-14T15:22:04.440Z,11.1268
2023-05-14T15:23:05.124Z,11.1551
2023-05-14T15:24:05.786Z,11.1591
2023-05-14T15:25:05.997Z,11.0841
2023-05-14T15:26:06.025Z,10.9048
2023-05-14T15:27:07.096Z,10.8855
2023-05-14T15:28:08.216Z,10.9017
2023-05-14T15:29:08.455Z,10.9815
2023-05-14T15:30:09.203Z,10.9125
2023-05-14T15:31:10.253Z,11.0319
2023-05-14T15:32:11.610Z,11.0596
2023-05-14T15:33:12.387Z,10.8246
2023-05-14T15:34:14.053Z,10.7717
2023-05-14T15:35:13.751Z,10.8133
2023-05-14T15:36:14.213Z,10.9793
2023-05-14T15:37:14.290Z,10.9500
2023-05-14T15:38:15.311Z,10.9636
2023-05-14T15:39:15.696Z,10.8993
2023-05-14T15:40:16.000Z,10.8189
2023-05-14T15:41:17.366Z,10.9314
2023-05-14T15:43:18.195Z,10.7994
2023-05-14T15:45:20.945Z,10.9687
2023-05-14T15:46:22.054Z,10.8587
2023-05-14T15:47:22.791Z,10.8743
2023-05-14T15:48:23.848Z,11.0223
2023-05-14T15:49:24.193Z,10.9572
2023-05-14T15:50:25.276Z,11.0085
2023-05-14T15:51:25.122Z,10.9898
2023-05-14T15:52:26.116Z,11.0217
2023-05-14T15:53:26.977Z,11.0506
2023-05-14T15:54:27.835Z,11.0741
2023-05-14T15:55:28.098Z,11.1868
2023-05-14T15:56:28.931Z,11.2524
2023-05-14T15:57:29.790Z,11.3219
2023-05-14T15:58:29.856Z,11.3978
2023-05-14T15:59:30.890Z,11.4718
2023-05-14T16:00:32.024Z,11.7775
2023-05-14T16:01:32.556Z,11.7534
2023-05-14T16:02:33.449Z,11.8010
2023-05-14T16:03:34.067Z,11.7394
2023-05-14T16:04:34.371Z,11.6814
2023-05-14T16:05:35.517Z,11.5716
2023-05-14T16:06:36.278Z,11.4909
2023-05-14T16:07:37.534Z,11.4693
2023-05-14T16:08:38.275Z,11.4229
2023-05-14T16:09:38.778Z,11.2245
2023-05-14T16:10:39.668Z,11.0784
2023-05-14T16:11:39.885Z,11.0015
2023-05-14T16:12:40.790Z,11.0054
2023-05-14T16:14:42.079Z,11.0857
2023-05-14T16:16:42.776Z,10.9688
2023-05-14T16:17:44.504Z,10.8279
2023-05-14T16:18:45.368Z,10.8552
2023-05-14T16:19:45.783Z,10.8176
2023-05-14T16:20:46.731Z,10.8055
2023-05-14T16:21:47.211Z,10.7219
2023-05-14T16:22:47.841Z,10.6379
2023-05-14T16:23:48.648Z,10.5538
2023-05-14T16:24:49.149Z,10.4216
2023-05-14T16:25:50.498Z,10.5117
2023-05-14T16:27:50.759Z,10.3619
2023-05-14T16:28:52.335Z,10.3898
2023-05-14T16:29:52.762Z,10.3829
2023-05-14T16:30:53.926Z,10.3786
2023-05-14T16:31:54.946Z,10.3840
2023-05-14T16:32:56.051Z,10.3642
2023-05-14T16:33:57.194Z,10.3677
2023-05-14T16:34:57.652Z,10.3336
2023-05-14T16:35:58.169Z,10.3082
2023-05-14T16:38:00.089Z,10.2757
2023-05-14T16:39:07.314Z,10.2799
2023-05-14T16:40:03.325Z,10.2847
2023-05-14T16:41:03.843Z,10.3071
2023-05-14T16:42:03.932Z,10.2808
2023-05-14T16:43:04.809Z,10.3105
2023-05-14T16:44:05.044Z,10.3454
2023-05-14T16:45:05.805Z,10.3631
2023-05-14T16:46:06.497Z,10.3436
2023-05-14T16:47:07.231Z,10.3415
2023-05-14T16:49:08.146Z,10.2554
2023-05-14T16:52:09.814Z,10.0944
2023-05-14T16:53:10.128Z,10.0338
2023-05-14T16:54:10.276Z,10.1158
2023-05-14T16:57:13.330Z,10.0740
2023-05-14T16:58:14.193Z,10.0662
2023-05-14T16:59:15.334Z,10.0538
2023-05-14T17:00:16.442Z,10.0294
2023-05-14T17:01:17.833Z,9.9935
2023-05-14T17:02:18.638Z,9.9582
2023-05-14T17:03:18.681Z,10.0326
2023-05-14T17:04:19.321Z,10.0336
2023-05-14T17:05:19.690Z,10.0519
2023-05-14T17:06:20.564Z,10.0903
2023-05-14T17:07:21.362Z,10.1091
2023-05-14T17:08:22.681Z,10.1256
2023-05-14T17:09:24.115Z,10.1599
2023-05-14T17:10:24.450Z,10.1603
2023-05-14T17:11:25.543Z,10.1607
2023-05-14T17:12:25.746Z,10.1620
2023-05-14T17:15:28.129Z,10.1563
2023-05-14T17:16:27.870Z,10.1566
2023-05-14T17:17:28.761Z,10.1567
2023-05-14T17:19:29.431Z,10.0833
2023-05-14T17:20:29.911Z,10.0955
2023-05-14T17:22:32.389Z,10.1056
2023-05-14T17:23:32.565Z,10.1283
2023-05-14T17:24:32.630Z,10.1558
2023-05-14T17:25:33.398Z,10.1278
2023-05-14T17:27:36.861Z,10.0557
2023-05-14T17:28:38.013Z,10.0837
2023-05-14T17:29:39.351Z,10.0735
2023-05-14T17:30:39.416Z,10.0945
2023-05-14T17:31:40.269Z,10.1211
2023-05-14T17:32:41.621Z,10.1586
2023-05-14T17:33:42.600Z,10.1709
2023-05-14T17:34:43.595Z,10.1789
2023-05-14T17:35:44.463Z,10.2208
2023-05-14T17:36:44.371Z,10.2723
2023-05-14T17:37:45.120Z,10.2492
2023-05-14T17:38:47.508Z,10.2557
2023-05-14T17:48:53.030Z,10.0242
2023-05-14T17:49:53.201Z,10.0252
2023-05-14T17:50:54.249Z,10.0592
2023-05-14T17:51:55.167Z,10.1236
2023-05-14T17:52:56.789Z,10.1527
2023-05-14T17:53:56.383Z,10.1495
2023-05-14T17:54:57.246Z,10.1633
2023-05-14T17:55:57.346Z,10.1863
2023-05-14T17:56:58.110Z,10.1739
2023-05-14T17:57:59.321Z,10.1499
2023-05-14T17:59:00.055Z,10.1012
2023-05-14T18:00:01.183Z,10.0927
2023-05-14T18:01:01.301Z,10.0450
2023-05-14T18:02:01.942Z,10.0020
2023-05-14T18:03:02.360Z,9.9818
2023-05-14T18:04:02.549Z,10.0438
2023-05-14T18:05:02.998Z,10.0742
2023-05-14T18:06:03.592Z,10.0939
2023-05-14T18:07:04.522Z,10.0549
2023-05-14T18:08:05.957Z,10.0222
2023-05-14T18:09:07.105Z,10.0523
2023-05-14T18:10:07.167Z,9.9992
2023-05-14T18:11:07.917Z,10.0058
2023-05-14T18:12:08.697Z,10.0551
2023-05-14T18:13:09.675Z,10.1175
2023-05-14T18:14:11.055Z,10.1420
2023-05-14T18:15:11.328Z,10.1900
2023-05-14T18:16:12.015Z,10.1648
2023-05-14T18:17:12.367Z,10.0653
2023-05-14T18:18:12.655Z,10.1865
2023-05-14T18:19:13.387Z,10.0812
2023-05-14T18:20:13.487Z,10.0219
2023-05-14T18:21:14.830Z,10.0666
2023-05-14T18:23:15.340Z,10.0787
2023-05-14T18:24:16.039Z,10.0283
2023-05-14T18:25:16.636Z,10.0397
2023-05-14T18:26:18.008Z,10.0493
2023-05-14T18:28:19.014Z,9.8538
2023-05-14T18:29:19.918Z,9.7794
2023-05-14T18:30:20.327Z,9.7862
2023-05-14T18:31:21.041Z,9.8045
2023-05-14T18:32:21.202Z,9.8230
2023-05-14T18:42:12.675Z,9.8171
2023-05-14T18:43:13.708Z,9.8099
2023-05-14T18:44:13.862Z,9.7959
2023-05-14T18:45:14.512Z,9.7435
2023-05-14T18:46:16.056Z,9.6775
2023-05-14T18:47:17.084Z,9.6724
2023-05-14T18:48:17.150Z,9.6344
2023-05-14T18:49:18.397Z,9.6114
2023-05-14T18:50:19.269Z,9.6105
2023-05-14T18:51:19.374Z,9.6119
2023-05-14T18:52:20.435Z,9.5871
2023-05-14T18:53:22.302Z,9.5558
2023-05-14T18:58:26.618Z,9.5520
2023-05-14T18:59:26.904Z,9.5470
2023-05-14T19:01:27.801Z,9.5352
2023-05-14T19:04:33.135Z,9.5414
2023-05-14T19:05:31.141Z,9.5168
2023-05-14T19:11:35.279Z,9.5918
2023-05-14T19:12:35.509Z,9.6204
2023-05-14T19:14:38.572Z,9.6210
2023-05-14T19:15:38.721Z,9.6076
2023-05-14T19:16:39.995Z,9.6133
2023-05-14T19:17:42.078Z,9.6343
2023-05-14T19:18:42.729Z,9.6306
2023-05-14T19:23:45.721Z,9.7336
2023-05-14T19:24:46.959Z,9.7396
2023-05-14T19:28:48.893Z,9.7642
2023-05-14T19:29:49.331Z,9.7752
2023-05-14T19:30:49.381Z,9.7951
2023-05-14T19:31:50.455Z,9.8010
2023-05-14T19:32:51.203Z,9.7728